createdAt,value
2019-04-27T00:01:17.054Z,13.30
2019-04-27T00:04:04.295Z,13.20
2019-04-27T00:06:42.969Z,13.30
2019-04-27T00:09:16.295Z,13.40
2019-04-27T00:12:00.065Z,13.40
2019-04-27T00:14:29.667Z,13.50
2019-04-27T00:17:00.777Z,13.50
2019-04-27T00:19:55.705Z,13.50
2019-04-27T00:22:29.837Z,13.40
2019-04-27T00:24:59.328Z,13.40
2019-04-27T00:27:29.019Z,13.40
2019-04-27T00:29:58.722Z,13.50
2019-04-27T00:32:28.381Z,13.50
2019-04-27T00:34:57.974Z,13.50
2019-04-27T00:37:37.834Z,13.40
2019-04-27T00:40:15.619Z,13.40
2019-04-27T00:42:45.337Z,13.40
2019-04-27T00:45:15.376Z,13.30
2019-04-27T00:47:56.566Z,13.20
2019-04-27T00:50:16.244Z,13.20
2019-04-27T00:52:45.806Z,13.20
2019-04-27T00:55:16.443Z,13.20
2019-04-27T01:00:35.126Z,13.10
2019-04-27T01:03:06.285Z,13.00
2019-04-27T01:05:36.512Z,13.00
2019-04-27T01:08:05.996Z,13.00
2019-04-27T01:10:35.469Z,12.90
2019-04-27T01:13:06.016Z,12.80
2019-04-27T01:15:35.552Z,12.80
2019-04-27T01:18:24.352Z,12.80
2019-04-27T01:20:53.798Z,12.90
2019-04-27T01:23:23.338Z,12.80
2019-04-27T01:25:57.142Z,12.80
2019-04-27T01:28:29.052Z,12.70
2019-04-27T01:31:01.400Z,12.70
2019-04-27T01:33:30.845Z,12.70
2019-04-27T01:36:00.197Z,12.70
2019-04-27T01:38:29.592Z,12.60
2019-04-27T01:41:00.650Z,12.70
2019-04-27T01:43:30.320Z,12.70
2019-04-27T01:46:01.021Z,12.70
2019-04-27T01:48:30.957Z,12.60
2019-04-27T01:51:00.380Z,12.60
2019-04-27T01:53:30.446Z,12.50
2019-04-27T01:56:00.080Z,12.50
2019-04-27T01:58:29.627Z,12.40
2019-04-27T02:01:00.760Z,12.50
2019-04-27T02:03:48.892Z,12.50
2019-04-27T02:06:20.784Z,12.40
2019-04-27T02:08:51.418Z,12.50
2019-04-27T02:11:21.121Z,12.40
2019-04-27T02:13:51.018Z,12.40
2019-04-27T02:16:21.174Z,12.40
2019-04-27T02:18:50.749Z,12.40
2019-04-27T02:21:20.729Z,12.40
2019-04-27T02:23:50.272Z,12.40
2019-04-27T02:26:21.571Z,12.40
2019-04-27T02:29:08.793Z,12.40
2019-04-27T02:31:56.490Z,12.30
2019-04-27T02:34:31.926Z,12.40
2019-04-27T02:37:01.952Z,12.30
2019-04-27T02:39:29.945Z,12.30
2019-04-27T02:42:00.226Z,12.20
2019-04-27T02:44:33.201Z,12.20
2019-04-27T02:47:03.148Z,12.10
2019-04-27T02:49:32.671Z,12.10
2019-04-27T02:52:06.726Z,12.00
2019-04-27T02:54:36.265Z,12.10
2019-04-27T02:57:05.882Z,12.10
2019-04-27T02:59:35.339Z,12.00
2019-04-27T03:02:10.801Z,12.00
2019-04-27T03:04:40.373Z,11.90
2019-04-27T03:07:11.479Z,11.90
2019-04-27T03:09:41.375Z,11.90
2019-04-27T03:12:24.404Z,11.80
2019-04-27T03:14:59.563Z,11.70
2019-04-27T03:17:42.890Z,11.60
2019-04-27T03:20:17.193Z,11.60
2019-04-27T03:22:49.785Z,11.30
2019-04-27T03:25:24.278Z,11.30
2019-04-27T03:28:02.086Z,11.50
2019-04-27T03:30:31.926Z,11.50
2019-04-27T03:33:03.061Z,11.40
2019-04-27T03:35:36.550Z,11.50
2019-04-27T03:38:05.283Z,11.40
2019-04-27T03:40:34.868Z,11.50
2019-04-27T03:43:12.995Z,11.50
2019-04-27T03:45:42.536Z,11.60
2019-04-27T03:48:12.023Z,11.50
2019-04-27T03:50:43.181Z,11.60
2019-04-27T03:53:15.529Z,11.60
2019-04-27T03:55:59.960Z,11.60
2019-04-27T03:58:34.780Z,11.60
2019-04-27T04:01:04.562Z,11.50
2019-04-27T04:03:34.340Z,11.50
2019-04-27T04:06:03.781Z,11.50
2019-04-27T04:08:33.401Z,11.50
2019-04-27T04:11:10.528Z,11.40
2019-04-27T04:13:44.037Z,11.40
2019-04-27T04:16:23.892Z,11.30
2019-04-27T04:19:04.186Z,11.20
2019-04-27T04:21:33.748Z,11.20
2019-04-27T04:24:03.201Z,11.10
2019-04-27T04:26:33.262Z,11.20
2019-04-27T04:29:04.670Z,11.30
2019-04-27T04:31:34.164Z,11.10
2019-04-27T04:34:03.633Z,11.10
2019-04-27T04:36:33.073Z,11.10
2019-04-27T04:39:02.489Z,11.20
2019-04-27T04:41:40.534Z,11.20
2019-04-27T04:44:16.760Z,11.20
2019-04-27T04:46:53.494Z,11.30
2019-04-27T04:49:22.993Z,11.30
2019-04-27T04:51:52.642Z,11.10
2019-04-27T04:54:24.584Z,11.10
2019-04-27T04:56:53.151Z,11.20
2019-04-27T04:59:23.821Z,11.20
2019-04-27T05:01:53.236Z,11.30
2019-04-27T05:04:22.708Z,11.20
2019-04-27T05:06:52.128Z,11.20
2019-04-27T05:09:21.602Z,11.20
2019-04-27T05:11:51.083Z,11.40
2019-04-27T05:14:20.684Z,11.50
2019-04-27T05:16:50.117Z,11.50
2019-04-27T05:19:19.598Z,11.50
2019-04-27T05:21:49.252Z,11.60
2019-04-27T05:24:19.241Z,11.60
2019-04-27T05:26:49.098Z,11.60
2019-04-27T05:29:19.181Z,11.70
2019-04-27T05:31:49.106Z,11.70
2019-04-27T05:34:19.720Z,11.70
2019-04-27T05:36:52.477Z,11.80
2019-04-27T05:39:25.076Z,11.80
2019-04-27T05:41:51.659Z,11.90
2019-04-27T05:44:25.324Z,11.90
2019-04-27T05:46:56.532Z,11.90
2019-04-27T05:49:31.738Z,12.00
2019-04-27T05:52:01.489Z,12.10
2019-04-27T05:54:30.896Z,12.20
2019-04-27T05:57:00.334Z,12.20
2019-04-27T05:59:29.929Z,12.40
2019-04-27T06:01:59.506Z,12.40
2019-04-27T06:04:29.194Z,12.40
2019-04-27T06:07:01.022Z,12.30
2019-04-27T06:09:30.540Z,12.50
2019-04-27T06:12:12.819Z,12.70
2019-04-27T06:14:42.442Z,12.90
2019-04-27T06:17:11.908Z,13.00
2019-04-27T06:19:43.779Z,13.00
2019-04-27T06:22:12.572Z,13.10
2019-04-27T06:24:42.107Z,13.00
2019-04-27T06:27:11.710Z,13.10
2019-04-27T06:29:41.106Z,13.10
2019-04-27T06:32:10.960Z,13.00
2019-04-27T06:34:40.649Z,13.30
2019-04-27T06:37:10.250Z,13.30
2019-04-27T06:39:39.647Z,13.40
2019-04-27T06:42:17.922Z,13.50
2019-04-27T06:44:41.251Z,13.60
2019-04-27T06:47:11.909Z,13.70
2019-04-27T06:49:41.465Z,13.80
2019-04-27T06:52:10.878Z,13.90
2019-04-27T06:54:40.295Z,14.00
2019-04-27T06:57:09.801Z,14.00
2019-04-27T06:59:40.030Z,14.10
2019-04-27T07:02:09.511Z,14.40
2019-04-27T07:04:39.200Z,14.70
2019-04-27T07:07:10.042Z,14.80
2019-04-27T07:09:39.512Z,14.80
2019-04-27T07:12:09.039Z,14.90
2019-04-27T07:14:51.992Z,14.90
2019-04-27T07:17:09.912Z,15.00
2019-04-27T07:19:39.775Z,14.90
2019-04-27T07:22:11.403Z,14.90
2019-04-27T07:24:40.735Z,15.00
2019-04-27T07:27:10.306Z,15.10
2019-04-27T07:29:44.673Z,16.40
2019-04-27T07:32:12.690Z,16.20
2019-04-27T07:34:42.161Z,15.90
2019-04-27T07:37:11.609Z,15.80
2019-04-27T07:39:41.202Z,15.80
2019-04-27T07:42:10.578Z,15.70
2019-04-27T07:44:41.596Z,15.60
2019-04-27T07:47:29.421Z,15.60
2019-04-27T07:49:59.289Z,15.50
2019-04-27T07:52:31.529Z,15.60
2019-04-27T07:55:00.983Z,15.60
2019-04-27T07:57:30.951Z,15.70
2019-04-27T08:00:00.288Z,15.80
2019-04-27T08:02:31.379Z,15.90
2019-04-27T08:05:00.951Z,15.80
2019-04-27T08:07:30.560Z,15.70
2019-04-27T08:10:01.675Z,15.70
2019-04-27T08:12:31.400Z,15.80
2019-04-27T08:15:00.876Z,15.90
2019-04-27T08:17:30.605Z,15.90
2019-04-27T08:20:00.111Z,16.00
2019-04-27T08:22:29.679Z,16.40
2019-04-27T08:24:59.573Z,16.40
2019-04-27T08:27:30.882Z,16.50
2019-04-27T08:30:02.090Z,16.30
2019-04-27T08:32:33.931Z,16.10
2019-04-27T08:35:04.805Z,16.10
2019-04-27T08:37:34.192Z,16.30
2019-04-27T08:40:05.852Z,16.30
2019-04-27T08:42:35.434Z,16.40
2019-04-27T08:45:06.075Z,16.50
2019-04-27T08:47:36.116Z,16.60
2019-04-27T08:50:06.454Z,16.80
2019-04-27T08:52:36.062Z,17.00
2019-04-27T08:55:07.000Z,17.00
2019-04-27T08:57:36.681Z,17.00
2019-04-27T09:00:09.453Z,16.90
2019-04-27T09:02:46.566Z,16.70
2019-04-27T09:05:11.151Z,16.60
2019-04-27T09:10:40.893Z,16.90
2019-04-27T09:13:14.981Z,17.00
2019-04-27T09:16:04.191Z,17.10
2019-04-27T09:18:35.093Z,17.30
2019-04-27T09:21:04.788Z,17.20
2019-04-27T09:23:34.391Z,17.20
2019-04-27T09:26:04.119Z,17.20
2019-04-27T09:28:33.597Z,17.10
2019-04-27T09:31:04.644Z,17.10
2019-04-27T09:33:34.669Z,17.10
2019-04-27T09:36:06.022Z,17.30
2019-04-27T09:38:35.855Z,17.40
2019-04-27T09:41:07.213Z,17.50
2019-04-27T09:43:36.885Z,17.50
2019-04-27T09:46:06.379Z,17.60
2019-04-27T09:48:36.255Z,17.60
2019-04-27T09:51:06.972Z,17.70
2019-04-27T09:53:36.637Z,17.90
2019-04-27T09:56:06.220Z,18.00
2019-04-27T09:58:36.928Z,17.90
2019-04-27T10:01:06.738Z,18.00
2019-04-27T10:03:36.310Z,17.90
2019-04-27T10:06:06.004Z,18.00
2019-04-27T10:08:36.685Z,18.00
2019-04-27T10:11:06.398Z,18.10
2019-04-27T10:13:36.444Z,18.10
2019-04-27T10:16:06.221Z,18.20
2019-04-27T10:18:36.754Z,18.40
2019-04-27T10:21:07.644Z,18.40
2019-04-27T10:23:38.444Z,18.20
2019-04-27T10:26:08.302Z,18.00
2019-04-27T10:28:38.513Z,18.20
2019-04-27T10:31:08.219Z,18.20
2019-04-27T10:33:38.691Z,18.40
2019-04-27T10:36:10.874Z,18.50
2019-04-27T10:38:40.414Z,18.80
2019-04-27T10:41:09.843Z,18.90
2019-04-27T10:43:39.291Z,18.90
2019-04-27T10:46:08.764Z,18.90
2019-04-27T10:48:38.325Z,18.90
2019-04-27T10:51:07.850Z,19.00
2019-04-27T10:53:38.898Z,19.10
2019-04-27T10:56:08.515Z,19.10
2019-04-27T10:58:38.090Z,19.30
2019-04-27T11:01:08.939Z,19.30
2019-04-27T11:03:55.791Z,19.20
2019-04-27T11:06:45.420Z,19.30
2019-04-27T11:09:19.544Z,19.30
2019-04-27T11:11:49.279Z,19.40
2019-04-27T11:14:18.690Z,19.40
2019-04-27T11:16:48.186Z,19.30
2019-04-27T11:19:17.725Z,19.30
2019-04-27T11:21:47.292Z,19.30
2019-04-27T11:24:16.774Z,19.40
2019-04-27T11:26:46.629Z,19.50
2019-04-27T11:29:16.254Z,19.70
2019-04-27T11:31:46.614Z,19.70
2019-04-27T11:34:16.302Z,19.70
2019-04-27T11:36:47.565Z,19.60
2019-04-27T11:39:19.670Z,19.60
2019-04-27T11:41:48.723Z,19.70
2019-04-27T11:44:18.187Z,19.80
2019-04-27T11:46:47.790Z,19.70
2019-04-27T11:49:17.398Z,19.60
2019-04-27T11:51:46.879Z,19.60
2019-04-27T11:54:16.349Z,19.60
2019-04-27T11:56:47.222Z,19.60
2019-04-27T11:59:16.872Z,19.70
2019-04-27T12:01:46.434Z,19.80
2019-04-27T12:04:16.134Z,20.00
2019-04-27T12:06:47.432Z,19.90
2019-04-27T12:09:19.092Z,19.90
2019-04-27T12:11:49.701Z,19.90
2019-04-27T12:14:22.352Z,19.90
2019-04-27T12:16:52.422Z,19.90
2019-04-27T12:19:26.684Z,19.80
2019-04-27T12:21:56.527Z,19.80
2019-04-27T12:24:26.744Z,19.90
2019-04-27T12:26:59.420Z,20.00
2019-04-27T12:29:30.620Z,20.10
2019-04-27T12:32:00.797Z,20.40
2019-04-27T12:34:30.281Z,20.30
2019-04-27T12:36:59.998Z,20.20
2019-04-27T12:39:31.066Z,20.30
2019-04-27T12:42:00.514Z,20.40
2019-04-27T12:44:31.858Z,20.60
2019-04-27T12:47:02.672Z,20.60
2019-04-27T12:49:32.374Z,20.80
2019-04-27T12:52:01.860Z,20.70
2019-04-27T12:54:33.049Z,20.80
2019-04-27T12:57:11.215Z,20.90
2019-04-27T13:00:06.532Z,21.00
2019-04-27T13:02:37.648Z,21.00
2019-04-27T13:05:08.326Z,21.20
2019-04-27T13:07:37.973Z,21.00
2019-04-27T13:10:07.692Z,21.30
2019-04-27T13:12:37.231Z,21.40
2019-04-27T13:15:08.634Z,21.50
2019-04-27T13:17:38.108Z,21.30
2019-04-27T13:20:08.035Z,21.20
2019-04-27T13:22:37.766Z,22.00
2019-04-27T13:25:08.367Z,22.20
2019-04-27T13:27:37.982Z,21.70
2019-04-27T13:30:08.836Z,21.50
2019-04-27T13:32:40.558Z,21.40
2019-04-27T13:35:10.532Z,21.60
2019-04-27T13:37:41.719Z,22.20
2019-04-27T13:40:13.718Z,22.80
2019-04-27T13:42:46.165Z,22.90
2019-04-27T13:45:26.634Z,22.30
2019-04-27T13:48:10.850Z,22.50
2019-04-27T13:50:52.238Z,22.50
2019-04-27T13:53:21.601Z,22.40
2019-04-27T13:55:51.022Z,22.30
2019-04-27T13:58:20.574Z,22.20
2019-04-27T14:00:50.183Z,22.80
2019-04-27T14:03:21.088Z,23.20
2019-04-27T14:05:52.509Z,23.40
2019-04-27T14:08:22.152Z,23.10
2019-04-27T14:10:51.769Z,23.40
2019-04-27T14:13:21.326Z,23.90
2019-04-27T14:15:50.815Z,23.10
2019-04-27T14:18:20.323Z,23.40
2019-04-27T14:20:49.894Z,23.20
2019-04-27T14:23:20.919Z,23.30
2019-04-27T14:25:50.311Z,23.30
2019-04-27T14:28:19.762Z,23.50
2019-04-27T14:30:49.433Z,24.00
2019-04-27T14:33:20.049Z,24.10
2019-04-27T14:35:49.979Z,24.40
2019-04-27T14:38:19.553Z,25.10
2019-04-27T14:40:50.394Z,25.10
2019-04-27T14:43:20.327Z,25.50
2019-04-27T14:45:50.011Z,25.40
2019-04-27T14:48:19.562Z,25.20
2019-04-27T14:50:49.115Z,25.30
2019-04-27T14:53:18.574Z,24.60
2019-04-27T14:55:49.051Z,24.20
2019-04-27T14:58:19.623Z,24.90
2019-04-27T15:00:49.909Z,25.10
2019-04-27T15:03:21.267Z,24.70
2019-04-27T15:05:53.862Z,24.40
2019-04-27T15:08:22.116Z,24.90
2019-04-27T15:10:51.679Z,24.70
2019-04-27T15:13:21.304Z,24.80
2019-04-27T15:15:50.834Z,24.70
2019-04-27T15:18:23.516Z,24.70
2019-04-27T15:20:53.003Z,24.80
2019-04-27T15:23:22.467Z,24.20
2019-04-27T15:25:52.088Z,24.00
2019-04-27T15:28:23.202Z,24.20
2019-04-27T15:30:55.741Z,24.30
2019-04-27T15:33:46.842Z,24.00
2019-04-27T15:36:19.366Z,24.10
2019-04-27T15:39:01.196Z,24.70
2019-04-27T15:41:36.454Z,24.50
2019-04-27T15:44:07.015Z,24.50
2019-04-27T15:46:38.986Z,24.50
2019-04-27T15:49:11.282Z,24.70
2019-04-27T15:51:39.368Z,25.00
2019-04-27T15:54:08.928Z,24.80
2019-04-27T15:56:38.486Z,24.60
2019-04-27T15:59:08.636Z,24.10
2019-04-27T16:01:39.555Z,23.80
2019-04-27T16:04:11.186Z,23.30
2019-04-27T16:06:42.957Z,22.80
2019-04-27T16:09:24.344Z,22.60
2019-04-27T16:11:50.088Z,22.50
2019-04-27T16:14:18.886Z,22.40
2019-04-27T16:16:49.616Z,22.20
2019-04-27T16:19:19.178Z,22.00
2019-04-27T16:21:54.168Z,21.90
2019-04-27T16:24:21.166Z,21.80
2019-04-27T16:26:54.358Z,21.80
2019-04-27T16:29:23.026Z,21.70
2019-04-27T16:31:53.563Z,21.70
2019-04-27T16:34:23.076Z,21.70
2019-04-27T16:36:52.736Z,21.50
2019-04-27T16:39:22.362Z,21.50
2019-04-27T16:41:52.033Z,21.40
2019-04-27T16:44:21.543Z,21.20
2019-04-27T16:46:51.135Z,21.10
2019-04-27T16:49:22.152Z,21.10
2019-04-27T16:51:51.921Z,21.10
2019-04-27T16:54:21.609Z,21.00
2019-04-27T16:57:02.006Z,21.00
2019-04-27T16:59:42.651Z,21.00
2019-04-27T17:01:54.045Z,21.10
2019-04-27T17:04:25.836Z,20.90
2019-04-27T17:06:55.482Z,20.80
2019-04-27T17:09:25.355Z,20.80
2019-04-27T17:11:54.847Z,20.70
2019-04-27T17:14:34.755Z,20.60
2019-04-27T17:17:03.729Z,20.60
2019-04-27T17:19:39.993Z,20.50
2019-04-27T17:22:10.445Z,20.50
2019-04-27T17:24:46.836Z,20.50
2019-04-27T17:27:16.384Z,20.50
2019-04-27T17:29:50.115Z,20.50
2019-04-27T17:32:30.329Z,20.40
2019-04-27T17:35:05.676Z,20.50
2019-04-27T17:37:35.773Z,20.80
2019-04-27T17:40:09.253Z,21.20
2019-04-27T17:42:51.591Z,21.60
2019-04-27T17:45:24.915Z,21.80
2019-04-27T17:47:54.426Z,21.50
2019-04-27T17:50:25.232Z,21.40
2019-04-27T17:52:56.953Z,21.30
2019-04-27T17:55:27.834Z,21.20
2019-04-27T17:58:04.969Z,21.00
2019-04-27T18:00:32.978Z,20.80
2019-04-27T18:03:03.051Z,20.60
2019-04-27T18:05:35.274Z,20.50
2019-04-27T18:08:13.621Z,20.40
2019-04-27T18:10:47.149Z,20.30
2019-04-27T18:13:25.635Z,20.20
2019-04-27T18:15:54.148Z,20.10
2019-04-27T18:18:30.677Z,19.90
2019-04-27T18:21:01.152Z,19.60
2019-04-27T18:23:34.485Z,19.40
2019-04-27T18:26:12.700Z,19.30
2019-04-27T18:28:52.304Z,19.20
2019-04-27T18:31:18.025Z,19.10
2019-04-27T18:33:47.657Z,19.00
2019-04-27T18:36:18.222Z,18.90
2019-04-27T18:38:49.679Z,18.90
2019-04-27T18:41:19.567Z,18.80
2019-04-27T18:43:52.237Z,18.80
2019-04-27T18:46:24.739Z,18.70
2019-04-27T18:48:55.730Z,18.60
2019-04-27T18:51:33.770Z,18.50
2019-04-27T18:54:03.751Z,18.40
2019-04-27T18:56:38.435Z,18.30
2019-04-27T18:59:06.079Z,18.20
2019-04-27T19:01:36.665Z,18.20
2019-04-27T19:04:06.190Z,18.00
2019-04-27T19:06:35.812Z,18.00
2019-04-27T19:09:08.296Z,17.90
2019-04-27T19:11:38.510Z,17.80
2019-04-27T19:14:08.395Z,17.70
2019-04-27T19:16:39.995Z,17.60
2019-04-27T19:19:10.224Z,17.50
2019-04-27T19:21:39.806Z,17.40
2019-04-27T19:24:10.140Z,17.30
2019-04-27T19:26:48.413Z,17.20
2019-04-27T19:29:29.274Z,17.20
2019-04-27T19:32:00.617Z,17.10
2019-04-27T19:34:30.236Z,17.00
2019-04-27T19:36:59.784Z,17.10
2019-04-27T19:39:29.244Z,17.20
2019-04-27T19:42:03.373Z,17.10
2019-04-27T19:44:29.874Z,17.20
2019-04-27T19:47:00.162Z,17.10
2019-04-27T19:49:31.741Z,17.00
2019-04-27T19:52:01.144Z,17.00
2019-04-27T19:54:30.923Z,17.00
2019-04-27T19:57:00.512Z,17.00
2019-04-27T19:59:31.705Z,16.90
2019-04-27T20:02:02.950Z,16.90
2019-04-27T20:04:34.184Z,16.70
2019-04-27T20:07:04.192Z,16.70
2019-04-27T20:09:35.394Z,16.80
2019-04-27T20:12:07.467Z,16.70
2019-04-27T20:14:50.676Z,16.80
2019-04-27T20:17:20.567Z,16.70
2019-04-27T20:19:51.685Z,16.70
2019-04-27T20:22:24.166Z,16.60
2019-04-27T20:24:52.822Z,16.70
2019-04-27T20:27:22.252Z,16.70
2019-04-27T20:29:53.056Z,16.80
2019-04-27T20:32:22.480Z,16.60
2019-04-27T20:34:52.050Z,16.50
2019-04-27T20:37:21.494Z,16.50
2019-04-27T20:39:51.404Z,16.50
2019-04-27T20:42:21.340Z,16.60
2019-04-27T20:44:51.556Z,16.60
2019-04-27T20:47:21.351Z,16.60
2019-04-27T20:49:50.754Z,16.50
2019-04-27T20:52:24.362Z,16.40
2019-04-27T20:54:53.825Z,16.40
2019-04-27T20:57:23.185Z,16.40
2019-04-27T20:59:52.652Z,16.40
2019-04-27T21:02:41.731Z,16.40
2019-04-27T21:05:15.883Z,16.40
2019-04-27T21:07:51.052Z,16.30
2019-04-27T21:10:20.865Z,16.20
2019-04-27T21:12:51.944Z,16.20
2019-04-27T21:15:21.498Z,16.20
2019-04-27T21:17:51.312Z,16.30
2019-04-27T21:20:21.891Z,16.20
2019-04-27T21:22:53.495Z,16.20
2019-04-27T21:25:24.332Z,16.20
2019-04-27T21:27:53.965Z,16.20
2019-04-27T21:30:23.529Z,16.10
2019-04-27T21:32:53.200Z,16.10
2019-04-27T21:35:22.697Z,16.10
2019-04-27T21:37:52.311Z,16.10
2019-04-27T21:40:22.596Z,16.00
2019-04-27T21:42:52.152Z,15.90
2019-04-27T21:45:21.892Z,15.80
2019-04-27T21:47:51.872Z,15.80
2019-04-27T21:50:23.214Z,15.70
2019-04-27T21:52:54.850Z,15.80
2019-04-27T21:55:25.969Z,15.80
2019-04-27T21:57:55.492Z,15.80
2019-04-27T22:00:38.783Z,15.80
2019-04-27T22:03:11.481Z,15.80
2019-04-27T22:05:41.775Z,15.80
2019-04-27T22:08:11.959Z,15.80
2019-04-27T22:10:41.701Z,15.70
2019-04-27T22:13:12.687Z,15.70
2019-04-27T22:15:42.324Z,15.70
2019-04-27T22:18:11.867Z,15.70
2019-04-27T22:20:42.699Z,15.70
2019-04-27T22:23:16.873Z,15.70
2019-04-27T22:25:47.412Z,15.60
2019-04-27T22:28:16.909Z,15.70
2019-04-27T22:30:46.441Z,15.70
2019-04-27T22:33:16.063Z,15.70
2019-04-27T22:35:45.533Z,15.70
2019-04-27T22:38:15.048Z,15.60
2019-04-27T22:40:52.068Z,15.60
2019-04-27T22:43:41.650Z,15.60
2019-04-27T22:46:12.692Z,15.60
2019-04-27T22:48:42.248Z,15.60
2019-04-27T22:51:11.763Z,15.70
2019-04-27T22:53:41.189Z,15.60
2019-04-27T22:56:13.502Z,15.60
2019-04-27T22:58:56.975Z,15.60
2019-04-27T23:01:20.371Z,15.60
2019-04-27T23:06:33.220Z,15.50
2019-04-27T23:09:02.928Z,15.50
2019-04-27T23:11:34.056Z,15.50
2019-04-27T23:14:04.012Z,15.50
2019-04-27T23:16:35.138Z,15.40
2019-04-27T23:19:06.035Z,15.40
2019-04-27T23:21:35.565Z,15.40
2019-04-27T23:24:05.206Z,15.40
2019-04-27T23:26:34.649Z,15.30
2019-04-27T23:29:13.151Z,15.30
2019-04-27T23:31:43.115Z,15.30
2019-04-27T23:34:12.607Z,15.30
2019-04-27T23:36:44.146Z,15.30
2019-04-27T23:39:13.677Z,15.20
2019-04-27T23:41:43.210Z,15.10
2019-04-27T23:44:13.504Z,15.00
2019-04-27T23:46:43.631Z,15.00
2019-04-27T23:49:13.049Z,15.00
2019-04-27T23:51:44.315Z,15.00
2019-04-27T23:54:13.847Z,14.90
2019-04-27T23:56:43.409Z,14.90
2019-04-27T23:59:24.219Z,14.90
